Time;durP1;ratioP1;P1;durP2;ratioP2;P2;SDS_P1;SDS_P2;PMS_P1;PMS_P2;Temp;Humidity;BMP_temperature;BMP_pressure;BME280_temperature;BME280_humidity;BME280_pressure;Samples;Min_cycle;Max_cycle;Signal;HPM_P1;HPM_P2
2023/11/08 00:00:50;;;;;;;0.40;0.30;;;;;;;;;;5072332;28;20017;-58
2023/11/08 00:03:17;;;;;;;1.15;0.40;;;;;;;;;;5080801;28;20042;-58
2023/11/08 00:05:44;;;;;;;1.02;0.55;;;;;;;;;;5081443;28;20029;-58
2023/11/08 00:08:11;;;;;;;0.52;0.30;;;;;;;;;;5079940;28;20110;-58
2023/11/08 00:10:37;;;;;;;0.70;0.40;;;;;;;;;;5091005;28;20020;-58
2023/11/08 00:13:04;;;;;;;0.30;0.20;;;;;;;;;;5087670;28;20217;-58
2023/11/08 00:15:31;;;;;;;2.00;0.40;;;;;;;;;;5087182;28;20030;-58
2023/11/08 00:18:01;;;;;;;0.32;0.30;;;;;;;;;;5081305;28;20055;-58
2023/11/08 00:20:28;;;;;;;21.55;0.68;;;;;;;;;;5067481;28;20155;-58
2023/11/08 00:22:55;;;;;;;3.47;0.73;;;;;;;;;;5060611;28;20083;-58
2023/11/08 00:25:21;;;;;;;3.95;0.82;;;;;;;;;;5051841;28;20025;-58
2023/11/08 00:27:48;;;;;;;0.63;0.30;;;;;;;;;;5056506;28;20096;-58
2023/11/08 00:30:15;;;;;;;1.42;0.50;;;;;;;;;;5072126;28;20025;-58
2023/11/08 00:32:42;;;;;;;0.38;0.20;;;;;;;;;;5071557;28;20029;-58
2023/11/08 00:35:12;;;;;;;0.35;0.25;;;;;;;;;;5067815;28;20056;-58
2023/11/08 00:37:38;;;;;;;0.22;0.20;;;;;;;;;;5066749;28;20078;-58
2023/11/08 00:40:06;;;;;;;1.23;0.40;;;;;;;;;;5066904;28;20067;-58
2023/11/08 00:42:32;;;;;;;0.95;0.50;;;;;;;;;;5066705;28;20031;-59
2023/11/08 00:44:59;;;;;;;0.43;0.38;;;;;;;;;;5072045;28;20103;-57
2023/11/08 00:47:26;;;;;;;0.95;0.45;;;;;;;;;;5088752;28;20086;-58
2023/11/08 00:49:53;;;;;;;0.30;0.28;;;;;;;;;;5071793;28;20032;-58
2023/11/08 00:52:21;;;;;;;0.20;0.20;;;;;;;;;;5071632;28;20543;-58
2023/11/08 00:54:51;;;;;;;0.47;0.40;;;;;;;;;;5071655;28;20060;-58
2023/11/08 00:57:17;;;;;;;1.43;0.43;;;;;;;;;;5055442;28;20021;-58
2023/11/08 00:59:44;;;;;;;4.53;0.60;;;;;;;;;;5085430;28;20089;-58
2023/11/08 01:02:11;;;;;;;0.57;0.37;;;;;;;;;;5066280;28;20028;-58
2023/11/08 01:04:37;;;;;;;0.00;0.00;;;;;;;;;;5070575;28;20535;-58
2023/11/08 01:07:05;;;;;;;0.57;0.40;;;;;;;;;;5074324;28;20116;-59
2023/11/08 01:09:32;;;;;;;0.80;0.47;;;;;;;;;;5094639;28;20446;-58
2023/11/08 01:11:59;;;;;;;1.47;0.97;;;;;;;;;;5096216;28;20051;-58
2023/11/08 01:14:25;;;;;;;2.30;1.17;;;;;;;;;;5095931;28;20036;-58
2023/11/08 01:16:52;;;;;;;5.90;0.90;;;;;;;;;;5095922;28;20378;-58
2023/11/08 01:19:19;;;;;;;1.33;0.83;;;;;;;;;;5074376;28;20557;-59
2023/11/08 01:21:46;;;;;;;0.87;0.67;;;;;;;;;;5069854;28;20107;-59
2023/11/08 01:24:13;;;;;;;2.40;1.00;;;;;;;;;;5067264;28;20068;-58
2023/11/08 01:26:40;;;;;;;1.53;0.80;;;;;;;;;;5070006;28;20032;-58
2023/11/08 01:29:07;;;;;;;1.77;1.10;;;;;;;;;;5073342;28;20024;-58
2023/11/08 01:31:34;;;;;;;0.97;0.50;;;;;;;;;;5075110;28;20070;-58
2023/11/08 01:34:02;;;;;;;1.33;0.70;;;;;;;;;;5092047;28;20032;-58
2023/11/08 01:36:30;;;;;;;1.37;0.80;;;;;;;;;;5095453;28;20016;-58
2023/11/08 01:38:58;;;;;;;7.33;1.60;;;;;;;;;;5085803;28;20487;-58
2023/11/08 01:41:25;;;;;;;0.90;0.57;;;;;;;;;;5074323;28;20029;-58
2023/11/08 01:43:51;;;;;;;1.43;0.70;;;;;;;;;;5086845;28;20042;-58
2023/11/08 01:46:21;;;;;;;0.70;0.50;;;;;;;;;;5072801;28;20375;-59
2023/11/08 01:48:49;;;;;;;1.10;0.53;;;;;;;;;;5069857;28;20035;-59
2023/11/08 01:51:16;;;;;;;2.03;0.93;;;;;;;;;;5073966;28;20097;-59
2023/11/08 01:53:43;;;;;;;1.03;0.77;;;;;;;;;;5081984;28;20027;-58
2023/11/08 01:56:10;;;;;;;1.70;0.40;;;;;;;;;;5070744;28;20111;-57
2023/11/08 01:58:38;;;;;;;0.40;0.40;;;;;;;;;;5054647;28;20028;-58
2023/11/08 02:01:13;;;;;;;2.83;0.97;;;;;;;;;;5054564;28;20033;-57
2023/11/08 02:03:41;;;;;;;1.33;0.63;;;;;;;;;;5069713;28;20468;-57
2023/11/08 02:06:10;;;;;;;0.37;0.37;;;;;;;;;;5069381;28;20507;-57
2023/11/08 02:08:40;;;;;;;1.67;0.97;;;;;;;;;;5069067;28;20120;-58
2023/11/08 02:11:09;;;;;;;0.93;0.60;;;;;;;;;;5069320;28;20472;-57
2023/11/08 02:13:36;;;;;;;1.00;0.60;;;;;;;;;;5073421;28;20360;-58
2023/11/08 02:16:02;;;;;;;1.43;0.70;;;;;;;;;;5073367;28;20025;-57
2023/11/08 02:18:33;;;;;;;1.13;0.70;;;;;;;;;;5075148;28;20094;-57
2023/11/08 02:21:03;;;;;;;3.13;0.80;;;;;;;;;;5085299;28;20036;-57
2023/11/08 02:23:31;;;;;;;1.60;0.83;;;;;;;;;;5075370;28;20086;-58
2023/11/08 02:25:58;;;;;;;0.90;0.60;;;;;;;;;;5082598;28;20082;-58
2023/11/08 02:28:27;;;;;;;9.13;1.10;;;;;;;;;;5068930;28;20027;-57
2023/11/08 02:30:55;;;;;;;2.13;1.07;;;;;;;;;;5069320;28;20071;-57
2023/11/08 02:33:22;;;;;;;5.30;0.80;;;;;;;;;;5082213;28;20028;-57
2023/11/08 02:35:49;;;;;;;0.43;0.30;;;;;;;;;;5074081;28;20038;-57
2023/11/08 02:38:15;;;;;;;1.37;0.63;;;;;;;;;;5074090;28;20020;-58
2023/11/08 02:40:43;;;;;;;1.77;0.70;;;;;;;;;;5074134;28;20020;-58
2023/11/08 02:43:12;;;;;;;8.70;0.80;;;;;;;;;;5073832;28;20135;-58
2023/11/08 02:45:39;;;;;;;0.77;0.53;;;;;;;;;;5073849;28;20430;-58
2023/11/08 02:48:07;;;;;;;1.60;0.63;;;;;;;;;;5052488;28;20029;-58
2023/11/08 02:50:36;;;;;;;0.60;0.40;;;;;;;;;;5076255;28;20107;-58
2023/11/08 02:53:03;;;;;;;1.13;0.53;;;;;;;;;;5088977;28;20020;-57
2023/11/08 02:55:31;;;;;;;6.17;0.97;;;;;;;;;;5074548;28;20103;-58
2023/11/08 02:57:58;;;;;;;10.67;1.43;;;;;;;;;;5050293;28;20033;-57
2023/11/08 03:00:25;;;;;;;1.70;1.10;;;;;;;;;;5072970;28;20475;-58
2023/11/08 03:02:52;;;;;;;4.10;2.03;;;;;;;;;;5083779;28;20496;-58
2023/11/08 03:05:22;;;;;;;5.37;2.77;;;;;;;;;;5083769;28;20044;-57
2023/11/08 03:07:50;;;;;;;9.13;3.77;;;;;;;;;;5093806;28;20035;-58
2023/11/08 03:10:19;;;;;;;10.97;1.17;;;;;;;;;;5088622;28;20790;-59
2023/11/08 03:12:54;;;;;;;2.93;0.80;;;;;;;;;;5078996;28;20550;-57
2023/11/08 03:15:21;;;;;;;0.83;0.70;;;;;;;;;;5086482;28;20475;-58
2023/11/08 03:17:50;;;;;;;0.57;0.47;;;;;;;;;;5074164;28;20145;-57
2023/11/08 03:20:17;;;;;;;1.03;0.70;;;;;;;;;;5069375;28;20076;-58
2023/11/08 03:22:43;;;;;;;30.00;1.13;;;;;;;;;;5073156;28;20021;-57
2023/11/08 03:25:16;;;;;;;0.53;0.23;;;;;;;;;;5073308;28;20442;-57
2023/11/08 03:27:44;;;;;;;4.50;1.10;;;;;;;;;;5081459;28;20483;-58
2023/11/08 03:30:12;;;;;;;2.57;0.70;;;;;;;;;;5074221;28;20031;-58
2023/11/08 03:32:39;;;;;;;1.87;0.80;;;;;;;;;;5071718;28;20021;-58
2023/11/08 03:35:06;;;;;;;2.07;0.93;;;;;;;;;;5067774;28;20078;-58
2023/11/08 03:37:36;;;;;;;12.10;0.93;;;;;;;;;;5082726;28;20024;-58
2023/11/08 03:40:05;;;;;;;1.37;0.80;;;;;;;;;;5058598;28;20035;-58
2023/11/08 03:42:34;;;;;;;1.73;0.70;;;;;;;;;;5083979;28;20730;-58
2023/11/08 03:45:01;;;;;;;0.80;0.50;;;;;;;;;;5077891;28;20510;-59
2023/11/08 03:47:28;;;;;;;1.27;0.87;;;;;;;;;;5072839;28;20020;-59
2023/11/08 03:49:55;;;;;;;0.17;0.17;;;;;;;;;;5071824;28;20145;-58
2023/11/08 03:52:23;;;;;;;0.30;0.30;;;;;;;;;;5072726;28;20078;-59
2023/11/08 03:54:50;;;;;;;2.67;0.50;;;;;;;;;;5084453;28;20371;-58
2023/11/08 03:57:18;;;;;;;0.93;0.40;;;;;;;;;;5073837;28;20032;-58
2023/11/08 03:59:45;;;;;;;0.70;0.50;;;;;;;;;;5068487;28;20117;-58
2023/11/08 04:02:11;;;;;;;2.20;1.13;;;;;;;;;;5067113;28;20041;-58
2023/11/08 04:04:38;;;;;;;0.63;0.40;;;;;;;;;;5067052;28;20038;-58
2023/11/08 04:07:05;;;;;;;1.23;0.50;;;;;;;;;;5071674;28;20480;-58
2023/11/08 04:09:32;;;;;;;1.33;0.73;;;;;;;;;;5088463;28;20028;-58
2023/11/08 04:11:58;;;;;;;1.27;0.43;;;;;;;;;;5092478;28;20031;-58
2023/11/08 04:14:25;;;;;;;0.20;0.20;;;;;;;;;;5092740;28;20480;-57
2023/11/08 04:16:54;;;;;;;1.03;0.63;;;;;;;;;;5092515;28;20020;-58
2023/11/08 04:19:21;;;;;;;0.67;0.40;;;;;;;;;;5076592;28;20483;-58
2023/11/08 04:21:48;;;;;;;0.57;0.40;;;;;;;;;;5049033;28;20032;-58
2023/11/08 04:24:14;;;;;;;1.23;0.50;;;;;;;;;;5068148;28;20083;-58
2023/11/08 04:26:42;;;;;;;1.03;0.53;;;;;;;;;;5073955;28;20025;-58
2023/11/08 04:29:09;;;;;;;0.90;0.63;;;;;;;;;;5089091;28;20028;-58
2023/11/08 04:31:35;;;;;;;2.53;1.10;;;;;;;;;;5091949;28;20016;-59
2023/11/08 04:34:03;;;;;;;0.97;0.77;;;;;;;;;;5072103;28;20033;-58
2023/11/08 04:36:29;;;;;;;1.60;0.80;;;;;;;;;;5071697;28;20033;-58
2023/11/08 04:38:58;;;;;;;4.10;1.10;;;;;;;;;;5087503;28;20028;-58
2023/11/08 04:41:25;;;;;;;0.60;0.47;;;;;;;;;;5088282;28;20021;-58
2023/11/08 04:43:51;;;;;;;1.07;0.60;;;;;;;;;;5067326;28;20029;-58
2023/11/08 04:46:18;;;;;;;1.50;0.80;;;;;;;;;;5066732;28;20123;-58
2023/11/08 04:48:45;;;;;;;1.13;0.60;;;;;;;;;;5068221;28;20033;-58
2023/11/08 04:51:13;;;;;;;0.50;0.37;;;;;;;;;;5069204;28;20113;-58
2023/11/08 04:53:40;;;;;;;1.30;0.90;;;;;;;;;;5091896;28;20487;-58
2023/11/08 04:56:06;;;;;;;2.13;0.97;;;;;;;;;;5088192;28;20021;-58
2023/11/08 04:58:33;;;;;;;3.60;0.93;;;;;;;;;;5077384;28;20032;-58
2023/11/08 05:01:00;;;;;;;1.27;0.77;;;;;;;;;;5077787;28;20024;-58
2023/11/08 05:03:27;;;;;;;3.00;0.70;;;;;;;;;;5083246;28;20036;-58
2023/11/08 05:05:53;;;;;;;8.17;0.87;;;;;;;;;;5082886;28;20032;-58
2023/11/08 05:08:20;;;;;;;2.10;0.47;;;;;;;;;;5085448;28;20113;-58
2023/11/08 05:10:48;;;;;;;2.03;0.63;;;;;;;;;;5085591;28;20077;-58
2023/11/08 05:13:15;;;;;;;0.57;0.40;;;;;;;;;;5087561;28;20391;-58
2023/11/08 05:15:42;;;;;;;3.80;0.87;;;;;;;;;;5080613;28;20029;-58
2023/11/08 05:18:09;;;;;;;0.47;0.30;;;;;;;;;;5070343;28;20028;-58
2023/11/08 05:20:37;;;;;;;0.27;0.27;;;;;;;;;;5069918;28;20094;-58
2023/11/08 05:23:03;;;;;;;1.03;0.27;;;;;;;;;;5070180;28;20161;-58
2023/11/08 05:25:30;;;;;;;10.80;0.43;;;;;;;;;;5075554;28;20024;-58
2023/11/08 05:27:58;;;;;;;0.60;0.60;;;;;;;;;;5085327;28;20028;-57
2023/11/08 05:30:25;;;;;;;0.37;0.20;;;;;;;;;;5085336;28;20028;-58
2023/11/08 05:32:52;;;;;;;3.50;0.50;;;;;;;;;;5085366;28;20024;-58
2023/11/08 05:35:19;;;;;;;1.07;0.50;;;;;;;;;;5080458;28;20422;-58
2023/11/08 05:37:47;;;;;;;1.47;0.60;;;;;;;;;;5069832;28;20490;-58
2023/11/08 05:40:14;;;;;;;1.07;0.40;;;;;;;;;;5069938;28;20353;-58
2023/11/08 05:42:44;;;;;;;0.40;0.30;;;;;;;;;;5070032;28;20104;-58
2023/11/08 05:45:11;;;;;;;0.47;0.30;;;;;;;;;;5083095;28;20474;-58
2023/11/08 05:47:38;;;;;;;1.33;0.60;;;;;;;;;;5088586;28;20536;-58
2023/11/08 05:50:09;;;;;;;3.30;0.60;;;;;;;;;;5087802;28;20383;-58
2023/11/08 05:52:37;;;;;;;0.30;0.20;;;;;;;;;;5088919;28;20027;-58
2023/11/08 05:55:04;;;;;;;0.30;0.30;;;;;;;;;;5076292;28;20395;-58
2023/11/08 05:57:31;;;;;;;0.00;0.00;;;;;;;;;;5069188;28;20056;-59
2023/11/08 05:59:57;;;;;;;0.93;0.37;;;;;;;;;;5073544;28;20025;-58
2023/11/08 06:02:24;;;;;;;1.90;0.57;;;;;;;;;;5073205;28;20104;-58
2023/11/08 06:04:51;;;;;;;0.30;0.30;;;;;;;;;;5082118;28;20050;-58
2023/11/08 06:07:17;;;;;;;0.10;0.10;;;;;;;;;;5093948;28;20142;-58
2023/11/08 06:09:44;;;;;;;1.20;0.50;;;;;;;;;;5092671;28;20086;-58
2023/11/08 06:12:11;;;;;;;1.10;0.47;;;;;;;;;;5088383;28;20016;-58
2023/11/08 06:14:37;;;;;;;0.57;0.43;;;;;;;;;;5081374;28;20028;-58
2023/11/08 06:17:04;;;;;;;0.50;0.30;;;;;;;;;;5068161;28;20129;-57
2023/11/08 06:19:31;;;;;;;0.20;0.20;;;;;;;;;;5067904;28;20032;-58
2023/11/08 06:21:57;;;;;;;1.20;0.30;;;;;;;;;;5073227;28;20028;-58
2023/11/08 06:24:24;;;;;;;0.50;0.30;;;;;;;;;;5077608;28;20024;-59
2023/11/08 06:26:51;;;;;;;18.33;0.93;;;;;;;;;;5063613;28;20020;-58
2023/11/08 06:29:21;;;;;;;0.20;0.20;;;;;;;;;;5060992;28;20070;-58
2023/11/08 06:31:48;;;;;;;0.50;0.40;;;;;;;;;;5052526;28;20380;-57
2023/11/08 06:34:14;;;;;;;1.33;0.40;;;;;;;;;;5047740;28;20074;-59
2023/11/08 06:36:41;;;;;;;1.23;0.40;;;;;;;;;;5065178;28;20024;-58
2023/11/08 06:39:12;;;;;;;0.47;0.30;;;;;;;;;;5086488;28;20479;-58
2023/11/08 06:41:39;;;;;;;2.27;0.77;;;;;;;;;;5088139;28;20109;-58
2023/11/08 06:44:06;;;;;;;0.17;0.17;;;;;;;;;;5092071;28;20040;-58
2023/11/08 06:46:32;;;;;;;0.73;0.43;;;;;;;;;;5092835;28;20024;-58
2023/11/08 06:48:59;;;;;;;0.83;0.47;;;;;;;;;;5087025;28;20032;-58
2023/11/08 06:51:26;;;;;;;1.47;0.70;;;;;;;;;;5092886;28;20073;-58
2023/11/08 06:53:52;;;;;;;0.10;0.10;;;;;;;;;;5074641;28;20577;-57
2023/11/08 06:56:19;;;;;;;0.23;0.20;;;;;;;;;;5068261;28;20029;-59
2023/11/08 06:58:46;;;;;;;0.80;0.50;;;;;;;;;;5078198;28;20509;-58
2023/11/08 07:01:12;;;;;;;0.50;0.30;;;;;;;;;;5087465;28;20339;-58
2023/11/08 07:03:39;;;;;;;2.10;0.40;;;;;;;;;;5087423;28;20043;-57
2023/11/08 07:06:06;;;;;;;0.57;0.37;;;;;;;;;;5091975;28;20024;-58
2023/11/08 07:08:33;;;;;;;6.77;0.40;;;;;;;;;;5085050;28;20025;-58
2023/11/08 07:11:02;;;;;;;2.70;0.60;;;;;;;;;;5073487;28;20852;-58
2023/11/08 07:13:28;;;;;;;1.37;0.77;;;;;;;;;;5073698;28;20472;-58
2023/11/08 07:15:55;;;;;;;0.30;0.30;;;;;;;;;;5073732;28;20020;-58
2023/11/08 07:18:22;;;;;;;0.50;0.50;;;;;;;;;;5075377;28;20055;-58
2023/11/08 07:20:50;;;;;;;0.30;0.30;;;;;;;;;;5088747;28;20028;-57
2023/11/08 07:23:17;;;;;;;0.50;0.50;;;;;;;;;;5072163;28;20048;-58
2023/11/08 07:25:43;;;;;;;0.80;0.63;;;;;;;;;;5078600;28;20466;-57
2023/11/08 07:28:10;;;;;;;1.23;0.60;;;;;;;;;;5090880;28;20473;-58
2023/11/08 07:30:38;;;;;;;0.57;0.40;;;;;;;;;;5093719;28;20111;-58
2023/11/08 07:33:04;;;;;;;1.07;0.40;;;;;;;;;;5080388;28;20028;-58
2023/11/08 07:35:31;;;;;;;1.07;0.60;;;;;;;;;;5073160;28;20163;-58
2023/11/08 07:37:58;;;;;;;1.17;0.73;;;;;;;;;;5073195;28;20484;-58
2023/11/08 07:40:24;;;;;;;1.63;0.80;;;;;;;;;;5070472;28;20035;-58
2023/11/08 07:42:51;;;;;;;1.40;0.40;;;;;;;;;;5078376;28;20032;-58
2023/11/08 07:45:18;;;;;;;0.20;0.20;;;;;;;;;;5088006;28;20177;-58
2023/11/08 07:47:45;;;;;;;1.37;0.40;;;;;;;;;;5088245;28;20020;-57
2023/11/08 07:50:14;;;;;;;1.03;0.40;;;;;;;;;;5089513;28;20024;-57
2023/11/08 07:52:42;;;;;;;0.60;0.50;;;;;;;;;;5084006;28;20483;-58
2023/11/08 07:55:11;;;;;;;0.43;0.33;;;;;;;;;;5072847;28;20103;-57
2023/11/08 07:57:39;;;;;;;1.70;0.80;;;;;;;;;;5076010;28;20048;-58
2023/11/08 08:00:08;;;;;;;0.73;0.40;;;;;;;;;;5093133;28;20023;-57
2023/11/08 08:02:35;;;;;;;1.07;0.70;;;;;;;;;;5090809;28;20036;-57
2023/11/08 08:05:01;;;;;;;0.90;0.47;;;;;;;;;;5087685;28;20036;-58
2023/11/08 08:07:28;;;;;;;0.50;0.30;;;;;;;;;;5086236;28;20024;-58
2023/11/08 08:09:55;;;;;;;1.83;0.70;;;;;;;;;;5067274;28;20040;-58
2023/11/08 08:12:21;;;;;;;1.10;0.63;;;;;;;;;;5067650;28;20076;-58
2023/11/08 08:14:48;;;;;;;2.10;0.50;;;;;;;;;;5072243;28;20021;-58
2023/11/08 08:17:15;;;;;;;0.23;0.20;;;;;;;;;;5072391;28;20025;-58
2023/11/08 08:19:41;;;;;;;0.47;0.30;;;;;;;;;;5091282;28;20103;-58
2023/11/08 08:22:08;;;;;;;0.83;0.60;;;;;;;;;;5092897;28;20027;-58
2023/11/08 08:24:35;;;;;;;0.70;0.47;;;;;;;;;;5091481;28;20486;-58
2023/11/08 08:27:01;;;;;;;0.97;0.53;;;;;;;;;;5087362;28;20160;-58
2023/11/08 08:29:28;;;;;;;1.67;0.77;;;;;;;;;;5069661;28;20048;-57
2023/11/08 08:31:55;;;;;;;0.40;0.33;;;;;;;;;;5067180;28;20113;-58
2023/11/08 08:34:21;;;;;;;2.23;0.77;;;;;;;;;;5066628;28;20126;-58
2023/11/08 08:36:48;;;;;;;1.07;0.37;;;;;;;;;;5071923;28;20387;-58
2023/11/08 08:39:17;;;;;;;0.47;0.30;;;;;;;;;;5087128;28;20349;-58
2023/11/08 08:41:45;;;;;;;0.40;0.33;;;;;;;;;;5092207;28;20056;-58
2023/11/08 08:44:13;;;;;;;0.70;0.60;;;;;;;;;;5092113;28;20509;-58
2023/11/08 08:46:39;;;;;;;0.93;0.60;;;;;;;;;;5092178;28;20055;-58
2023/11/08 08:49:06;;;;;;;0.73;0.50;;;;;;;;;;5072872;28;20081;-58
2023/11/08 08:51:33;;;;;;;0.77;0.23;;;;;;;;;;5066568;28;20696;-58
2023/11/08 08:54:00;;;;;;;1.10;0.83;;;;;;;;;;5064959;28;20024;-57
2023/11/08 08:56:27;;;;;;;3.03;0.87;;;;;;;;;;5066983;28;20445;-57
2023/11/08 08:58:54;;;;;;;1.40;0.63;;;;;;;;;;5083002;28;20067;-58
2023/11/08 09:01:21;;;;;;;1.30;0.70;;;;;;;;;;5092040;28;20017;-57
2023/11/08 09:03:49;;;;;;;0.47;0.40;;;;;;;;;;5092119;28;20525;-57
2023/11/08 09:06:19;;;;;;;1.40;0.70;;;;;;;;;;5092204;28;20467;-57
2023/11/08 09:08:46;;;;;;;0.53;0.50;;;;;;;;;;5076396;28;20058;-57
2023/11/08 09:11:12;;;;;;;1.20;0.73;;;;;;;;;;5066973;28;20036;-58
2023/11/08 09:13:39;;;;;;;0.70;0.60;;;;;;;;;;5066870;28;20554;-57
2023/11/08 09:16:09;;;;;;;1.00;0.57;;;;;;;;;;5066765;28;20690;-57
2023/11/08 09:18:36;;;;;;;1.33;0.70;;;;;;;;;;5080022;28;20058;-58
2023/11/08 09:21:03;;;;;;;1.27;0.97;;;;;;;;;;5090495;28;20020;-57
2023/11/08 09:23:33;;;;;;;1.20;0.70;;;;;;;;;;5092036;28;20085;-57
2023/11/08 09:25:59;;;;;;;0.63;0.43;;;;;;;;;;5095412;28;20039;-57
2023/11/08 09:28:26;;;;;;;1.03;0.40;;;;;;;;;;5082967;28;20096;-58
2023/11/08 09:30:55;;;;;;;0.90;0.43;;;;;;;;;;5075737;28;20438;-58
2023/11/08 09:33:21;;;;;;;1.37;0.60;;;;;;;;;;5087033;28;20078;-58
2023/11/08 09:35:48;;;;;;;0.30;0.20;;;;;;;;;;5090467;28;20020;-57
2023/11/08 09:38:15;;;;;;;1.10;0.33;;;;;;;;;;5088987;28;20111;-57
2023/11/08 09:40:42;;;;;;;0.70;0.50;;;;;;;;;;5090401;28;20394;-58
2023/11/08 09:43:10;;;;;;;0.53;0.30;;;;;;;;;;5092455;28;20048;-57
2023/11/08 09:45:38;;;;;;;0.93;0.60;;;;;;;;;;5095778;28;20024;-57
2023/11/08 09:48:05;;;;;;;0.43;0.27;;;;;;;;;;5080517;28;20039;-58
2023/11/08 09:50:32;;;;;;;1.00;0.50;;;;;;;;;;5075168;28;20082;-58
2023/11/08 09:52:59;;;;;;;0.80;0.43;;;;;;;;;;5075131;28;20371;-57
2023/11/08 09:55:26;;;;;;;0.97;0.40;;;;;;;;;;5073016;28;20059;-57
2023/11/08 09:57:53;;;;;;;0.53;0.30;;;;;;;;;;5082098;28;20068;-57
2023/11/08 10:00:20;;;;;;;0.27;0.27;;;;;;;;;;5089860;28;20024;-58
2023/11/08 10:02:47;;;;;;;3.30;0.70;;;;;;;;;;5089760;28;20028;-57
2023/11/08 10:05:14;;;;;;;0.40;0.30;;;;;;;;;;5078310;28;20494;-58
2023/11/08 10:07:41;;;;;;;1.83;0.80;;;;;;;;;;5074856;28;20024;-57
2023/11/08 10:10:08;;;;;;;0.87;0.50;;;;;;;;;;5074783;28;20028;-57
2023/11/08 10:12:34;;;;;;;2.57;1.10;;;;;;;;;;5086527;28;20031;-57
2023/11/08 10:15:03;;;;;;;0.93;0.50;;;;;;;;;;5095011;28;20028;-57
2023/11/08 10:17:37;;;;;;;0.33;0.20;;;;;;;;;;5093948;28;20032;-57
2023/11/08 10:20:08;;;;;;;0.30;0.20;;;;;;;;;;5087752;28;20107;-57
2023/11/08 10:22:34;;;;;;;0.60;0.30;;;;;;;;;;5089166;28;20059;-58
2023/11/08 10:25:02;;;;;;;0.10;0.10;;;;;;;;;;5089505;28;20020;-58
2023/11/08 10:27:29;;;;;;;0.50;0.40;;;;;;;;;;5090113;28;20016;-57
2023/11/08 10:30:16;;;;;;;1.80;0.50;;;;;;;;;;5089519;28;20028;-57
2023/11/08 10:32:43;;;;;;;0.20;0.20;;;;;;;;;;5083877;28;20086;-58
2023/11/08 10:35:18;;;;;;;1.40;0.60;;;;;;;;;;5093963;28;20043;-57
2023/11/08 10:37:45;;;;;;;0.17;0.17;;;;;;;;;;5094555;28;20043;-58
2023/11/08 10:40:13;;;;;;;0.87;0.30;;;;;;;;;;5094628;28;20020;-57
2023/11/08 10:42:41;;;;;;;0.10;0.10;;;;;;;;;;5088431;28;20021;-57
2023/11/08 10:45:08;;;;;;;0.30;0.20;;;;;;;;;;5076550;28;20025;-57
2023/11/08 10:47:39;;;;;;;0.87;0.47;;;;;;;;;;5068874;28;20035;-58
2023/11/08 10:50:06;;;;;;;0.10;0.10;;;;;;;;;;5069171;28;20013;-58
2023/11/08 10:52:39;;;;;;;0.83;0.30;;;;;;;;;;5071676;28;20052;-58
2023/11/08 10:55:08;;;;;;;0.63;0.43;;;;;;;;;;5070131;28;20028;-58
2023/11/08 10:57:35;;;;;;;1.03;0.50;;;;;;;;;;5055901;28;20041;-57
2023/11/08 11:00:03;;;;;;;0.10;0.10;;;;;;;;;;5074004;28;20052;-58
2023/11/08 11:02:36;;;;;;;0.23;0.20;;;;;;;;;;5080723;28;20023;-57
2023/11/08 11:05:04;;;;;;;0.77;0.37;;;;;;;;;;5094192;28;20081;-57
2023/11/08 11:07:31;;;;;;;0.87;0.40;;;;;;;;;;5091818;28;20024;-57
2023/11/08 11:09:59;;;;;;;0.33;0.17;;;;;;;;;;5088395;28;20059;-57
2023/11/08 11:12:56;;;;;;;0.77;0.53;;;;;;;;;;5082039;28;20044;-57
2023/11/08 11:15:44;;;;;;;1.03;0.53;;;;;;;;;;5052048;28;20074;-57
2023/11/08 11:18:17;;;;;;;0.63;0.23;;;;;;;;;;5071217;28;20037;-58
2023/11/08 11:20:47;;;;;;;0.50;0.30;;;;;;;;;;5073556;28;20032;-57
2023/11/08 11:23:49;;;;;;;0.13;0.13;;;;;;;;;;5085642;28;20562;-57
2023/11/08 11:26:36;;;;;;;5.40;0.40;;;;;;;;;;4991920;28;20030;-57
2023/11/08 11:29:04;;;;;;;0.77;0.37;;;;;;;;;;5087488;28;20568;-57
2023/11/08 11:31:42;;;;;;;0.53;0.30;;;;;;;;;;5088380;28;20478;-57
2023/11/08 11:37:10;;;;;;;0.30;0.20;;;;;;;;;;5068169;28;20032;-57
2023/11/08 11:39:38;;;;;;;0.40;0.27;;;;;;;;;;5068890;28;20036;-57
2023/11/08 11:42:13;;;;;;;0.87;0.50;;;;;;;;;;5073485;28;20086;-58
2023/11/08 11:44:39;;;;;;;;;;;;;;;;;;5093629;28;20043;-57
2023/11/08 11:47:10;;;;;;;1.13;0.60;;;;;;;;;;5093061;28;19911;-57
2023/11/08 11:49:44;;;;;;;0.87;0.50;;;;;;;;;;5093242;28;20020;-57
2023/11/08 11:52:12;;;;;;;0.52;0.28;;;;;;;;;;5089106;28;20619;-57
2023/11/08 11:54:44;;;;;;;0.20;0.20;;;;;;;;;;5067432;28;20029;-57
2023/11/08 11:57:10;;;;;;;0.97;0.57;;;;;;;;;;5081076;28;20036;-58
2023/11/08 11:59:37;;;;;;;0.70;0.40;;;;;;;;;;5087739;28;20545;-57
2023/11/08 12:02:04;;;;;;;0.83;0.57;;;;;;;;;;5087834;28;20074;-58
2023/11/08 12:04:30;;;;;;;0.53;0.30;;;;;;;;;;5072617;28;20068;-57
2023/11/08 12:06:57;;;;;;;0.83;0.50;;;;;;;;;;5072576;28;20050;-58
2023/11/08 12:09:24;;;;;;;0.40;0.30;;;;;;;;;;5072675;28;20027;-57
2023/11/08 12:11:50;;;;;;;0.20;0.20;;;;;;;;;;5072031;28;20058;-57
2023/11/08 12:14:21;;;;;;;6.27;0.70;;;;;;;;;;5089773;28;20024;-57
2023/11/08 12:16:48;;;;;;;0.70;0.33;;;;;;;;;;5087408;28;20079;-57
2023/11/08 12:19:17;;;;;;;0.20;0.20;;;;;;;;;;5087703;28;20024;-57
2023/11/08 12:21:47;;;;;;;0.27;0.27;;;;;;;;;;5087434;28;20497;-57
2023/11/08 12:24:14;;;;;;;0.30;0.20;;;;;;;;;;5069215;28;20071;-57
2023/11/08 12:26:41;;;;;;;0.27;0.20;;;;;;;;;;5072014;28;20023;-57
2023/11/08 12:29:09;;;;;;;0.63;0.43;;;;;;;;;;5072303;28;20025;-57
2023/11/08 12:31:38;;;;;;;0.40;0.23;;;;;;;;;;5072218;28;20020;-58
2023/11/08 12:34:08;;;;;;;1.47;1.00;;;;;;;;;;5088661;28;20122;-57
2023/11/08 12:36:35;;;;;;;3.03;0.60;;;;;;;;;;5091350;28;20024;-57
2023/11/08 12:39:05;;;;;;;1.13;0.40;;;;;;;;;;5087236;28;20084;-57
2023/11/08 12:41:42;;;;;;;0.20;0.20;;;;;;;;;;5086867;28;20016;-57
2023/11/08 12:44:09;;;;;;;0.30;0.30;;;;;;;;;;5069995;28;20110;-57
2023/11/08 12:46:46;;;;;;;0.20;0.20;;;;;;;;;;5070007;28;20035;-57
2023/11/08 12:49:20;;;;;;;1.37;0.90;;;;;;;;;;5092183;28;20031;-57
2023/11/08 12:51:47;;;;;;;0.97;0.50;;;;;;;;;;5091975;28;20084;-57
2023/11/08 12:54:18;;;;;;;0.50;0.40;;;;;;;;;;5057630;28;20078;-57
2023/11/08 12:56:45;;;;;;;1.27;0.67;;;;;;;;;;5072482;28;20390;-57
2023/11/08 12:59:14;;;;;;;0.83;0.60;;;;;;;;;;5088136;28;20023;-57
2023/11/08 13:01:41;;;;;;;4.70;1.00;;;;;;;;;;5066497;28;20125;-57
2023/11/08 13:04:09;;;;;;;0.40;0.33;;;;;;;;;;5066723;28;20028;-57
2023/11/08 13:06:36;;;;;;;0.73;0.60;;;;;;;;;;5080015;28;20032;-57
2023/11/08 13:09:03;;;;;;;0.57;0.33;;;;;;;;;;5087612;28;20035;-57
2023/11/08 13:11:33;;;;;;;1.63;0.73;;;;;;;;;;5091813;28;20038;-57
2023/11/08 13:14:00;;;;;;;1.43;0.60;;;;;;;;;;5087670;28;20064;-58
2023/11/08 13:16:27;;;;;;;2.17;1.10;;;;;;;;;;5071646;28;20047;-57
2023/11/08 13:18:54;;;;;;;1.07;0.40;;;;;;;;;;5071888;28;20055;-57
2023/11/08 13:21:21;;;;;;;1.23;0.70;;;;;;;;;;5070785;28;20099;-57
2023/11/08 13:23:48;;;;;;;0.90;0.50;;;;;;;;;;5068141;28;20036;-57
2023/11/08 13:26:15;;;;;;;0.93;0.70;;;;;;;;;;5086941;28;20486;-58
2023/11/08 13:28:45;;;;;;;2.93;1.10;;;;;;;;;;5086741;28;20062;-57
2023/11/08 13:31:15;;;;;;;2.43;1.27;;;;;;;;;;5077180;28;20507;-58
2023/11/08 13:33:42;;;;;;;1.00;0.67;;;;;;;;;;5071719;28;20020;-58
2023/11/08 13:36:09;;;;;;;1.40;0.83;;;;;;;;;;5090941;28;20024;-58
2023/11/08 13:38:37;;;;;;;1.93;1.27;;;;;;;;;;5091361;28;20077;-57
2023/11/08 13:41:05;;;;;;;4.00;1.10;;;;;;;;;;5091285;28;20054;-57
2023/11/08 13:43:34;;;;;;;1.53;0.83;;;;;;;;;;5091187;28;20365;-57
2023/11/08 13:46:01;;;;;;;6.37;1.50;;;;;;;;;;5068483;28;20024;-58
2023/11/08 13:48:28;;;;;;;1.03;0.87;;;;;;;;;;5066268;28;20476;-58
2023/11/08 13:50:58;;;;;;;2.50;1.10;;;;;;;;;;5066299;28;20031;-57
2023/11/08 13:53:25;;;;;;;1.47;0.80;;;;;;;;;;5066411;28;20666;-58
2023/11/08 13:55:51;;;;;;;3.30;1.70;;;;;;;;;;5086599;28;20024;-58
2023/11/08 13:58:18;;;;;;;1.97;1.20;;;;;;;;;;5091327;28;20056;-58
2023/11/08 14:00:45;;;;;;;3.07;1.63;;;;;;;;;;5091467;28;20055;-57
2023/11/08 14:03:11;;;;;;;7.90;0.83;;;;;;;;;;5076935;28;20500;-58
2023/11/08 14:05:38;;;;;;;3.43;2.10;;;;;;;;;;5071376;28;20032;-58
2023/11/08 14:08:05;;;;;;;20.30;2.73;;;;;;;;;;5066165;28;20054;-58
2023/11/08 14:10:32;;;;;;;12.60;2.43;;;;;;;;;;5066400;28;20100;-58
2023/11/08 14:12:59;;;;;;;4.03;2.03;;;;;;;;;;5080220;28;20032;-58
2023/11/08 14:15:26;;;;;;;3.73;1.73;;;;;;;;;;5089332;28;20502;-58
2023/11/08 14:17:55;;;;;;;3.80;1.90;;;;;;;;;;5082544;28;20032;-58
2023/11/08 14:20:22;;;;;;;1.80;1.30;;;;;;;;;;5074603;28;20032;-58
2023/11/08 14:22:50;;;;;;;2.53;1.30;;;;;;;;;;5074595;28;20029;-57
2023/11/08 14:25:18;;;;;;;3.07;1.10;;;;;;;;;;5074399;28;20044;-58
2023/11/08 14:27:45;;;;;;;1.27;0.90;;;;;;;;;;5083440;28;20074;-58
2023/11/08 14:30:11;;;;;;;3.30;1.20;;;;;;;;;;5090061;28;20425;-58
2023/11/08 14:32:38;;;;;;;3.27;1.37;;;;;;;;;;5089225;28;20386;-58
2023/11/08 14:35:05;;;;;;;12.40;1.17;;;;;;;;;;5089686;28;20020;-58
2023/11/08 14:37:32;;;;;;;2.10;0.97;;;;;;;;;;5082272;28;20509;-58
2023/11/08 14:39:59;;;;;;;0.70;0.60;;;;;;;;;;5072942;28;20096;-58
2023/11/08 14:42:26;;;;;;;5.27;1.23;;;;;;;;;;5074191;28;20033;-58
2023/11/08 14:44:53;;;;;;;5.10;1.23;;;;;;;;;;5074131;28;20035;-58
2023/11/08 14:47:24;;;;;;;1.93;1.27;;;;;;;;;;5078867;28;20031;-58
2023/11/08 14:49:52;;;;;;;1.53;0.90;;;;;;;;;;5094324;28;20069;-58